Terminal Aerodrome Forecast
Issued by NWS

Home | Current Version | Previous Version | Text Only | Print | Product List | Glossary On
Versions: 1 2 3 4 5 6 7 8 9 10 11 12 13 14 15 16 17 18 19 20 21 22 23 24 25 26 27 28 29 30
000
FTUS44 KHGX 030520
TAFUTS
TAF
KUTS 030520Z 0306/0406 06007KT P6SM VCSH BKN007 OVC030
      TEMPO 0306/0310 4SM -SHRA BR BKN007 OVC015
     FM031000 04006KT 4SM SHRA BR BKN007 OVC015
     FM031800 03006KT 3SM TSRA BR SCT004 BKN007 OVC012CB
     FM040000 01005KT 4SM -SHRA BR SCT004 BKN007 OVC012=

USA.gov is the U.S. government's official web portal to all federal, state and local government web resources and services.